createdAt,value
2022-10-10T00:01:35.695Z,6.10
2022-10-10T00:04:04.352Z,3.83
2022-10-10T00:06:33.331Z,4.00
2022-10-10T00:09:02.290Z,3.60
2022-10-10T00:11:32.665Z,5.47
2022-10-10T00:14:20.662Z,4.83
2022-10-10T00:16:47.921Z,4.10
2022-10-10T00:19:15.089Z,4.80
2022-10-10T00:21:42.221Z,6.37
2022-10-10T00:24:09.334Z,6.20
2022-10-10T00:26:36.514Z,6.07
2022-10-10T00:29:03.963Z,4.83
2022-10-10T00:31:31.247Z,4.73
2022-10-10T00:33:58.339Z,5.00
2022-10-10T00:36:25.631Z,3.90
2022-10-10T00:38:52.930Z,6.57
2022-10-10T00:41:20.120Z,6.90
2022-10-10T00:44:14.929Z,3.33
2022-10-10T00:46:43.349Z,6.73
2022-10-10T00:49:19.369Z,3.30
2022-10-10T00:51:50.364Z,3.20
2022-10-10T00:54:22.030Z,2.87
2022-10-10T00:57:00.372Z,5.43
2022-10-10T00:59:33.432Z,4.60
2022-10-10T01:02:00.707Z,3.63
2022-10-10T01:04:48.311Z,4.13
2022-10-10T01:07:31.107Z,4.47
2022-10-10T01:10:06.346Z,4.47
2022-10-10T01:12:57.308Z,3.73
2022-10-10T01:15:55.094Z,3.97
2022-10-10T01:18:42.912Z,3.70
2022-10-10T01:21:20.415Z,3.30
2022-10-10T01:24:24.259Z,4.60
2022-10-10T01:27:10.033Z,4.97
2022-10-10T01:29:47.579Z,4.53
2022-10-10T01:32:27.615Z,3.60
2022-10-10T01:35:12.578Z,4.17
2022-10-10T01:37:59.089Z,4.10
2022-10-10T01:40:39.876Z,4.17
2022-10-10T01:43:09.221Z,5.00
2022-10-10T01:45:36.306Z,4.57
2022-10-10T01:48:06.735Z,4.30
2022-10-10T01:51:04.850Z,5.17
2022-10-10T01:53:53.718Z,5.60
2022-10-10T01:56:42.081Z,3.20
2022-10-10T01:59:42.210Z,4.43
2022-10-10T02:03:05.523Z,3.33
2022-10-10T02:05:44.028Z,4.27
2022-10-10T02:08:25.961Z,5.03
2022-10-10T02:11:10.118Z,3.53
2022-10-10T02:13:44.842Z,3.13
2022-10-10T02:16:31.923Z,4.07
2022-10-10T02:19:00.316Z,4.77
2022-10-10T02:21:29.099Z,5.67
2022-10-10T02:24:01.577Z,3.90
2022-10-10T02:26:31.425Z,4.40
2022-10-10T02:29:13.336Z,3.83
2022-10-10T02:31:51.027Z,4.53
2022-10-10T02:34:24.843Z,5.73
2022-10-10T02:36:59.414Z,5.10
2022-10-10T02:39:32.550Z,5.83
2022-10-10T02:41:59.772Z,3.27
2022-10-10T02:44:27.886Z,5.13
2022-10-10T02:46:55.040Z,4.40
2022-10-10T02:49:30.599Z,4.80
2022-10-10T02:51:58.339Z,4.40
2022-10-10T02:54:26.012Z,4.30
2022-10-10T02:56:53.763Z,4.40
2022-10-10T02:59:21.205Z,6.63
2022-10-10T03:01:48.350Z,5.37
2022-10-10T03:04:16.535Z,5.03
2022-10-10T03:06:43.773Z,3.93
2022-10-10T03:09:10.963Z,5.37
2022-10-10T03:11:38.119Z,4.80
2022-10-10T03:14:05.312Z,4.13
2022-10-10T03:16:32.424Z,3.60
2022-10-10T03:18:59.558Z,5.30
2022-10-10T03:21:26.663Z,4.93
2022-10-10T03:23:53.711Z,3.77
2022-10-10T03:26:21.269Z,5.33
2022-10-10T03:28:48.399Z,4.67
2022-10-10T03:31:15.509Z,4.73
2022-10-10T03:33:42.649Z,5.30
2022-10-10T03:36:09.908Z,4.40
2022-10-10T03:38:36.942Z,3.87
2022-10-10T03:41:03.983Z,5.27
2022-10-10T03:43:31.953Z,5.43
2022-10-10T03:45:59.268Z,3.23
2022-10-10T03:48:26.420Z,4.17
2022-10-10T03:50:53.491Z,4.47
2022-10-10T03:53:20.609Z,5.17
2022-10-10T03:55:47.627Z,4.23
2022-10-10T03:58:14.899Z,6.97
2022-10-10T04:00:41.991Z,7.07
2022-10-10T04:03:09.458Z,3.33
2022-10-10T04:05:39.474Z,4.83
2022-10-10T04:08:07.342Z,5.57
2022-10-10T04:10:34.474Z,4.20
2022-10-10T04:13:01.525Z,4.30
2022-10-10T04:15:28.691Z,5.40
2022-10-10T04:17:55.938Z,5.63
2022-10-10T04:20:23.250Z,4.20
2022-10-10T04:22:50.725Z,3.70
2022-10-10T04:25:18.504Z,4.17
2022-10-10T04:27:45.768Z,5.50
2022-10-10T04:30:13.586Z,4.73
2022-10-10T04:32:41.047Z,6.37
2022-10-10T04:35:08.587Z,4.53
2022-10-10T04:37:35.681Z,4.70
2022-10-10T04:40:03.943Z,3.73
2022-10-10T04:42:31.052Z,4.30
2022-10-10T04:44:58.137Z,5.47
2022-10-10T04:47:25.380Z,5.13
2022-10-10T04:49:52.613Z,4.97
2022-10-10T04:52:20.094Z,4.53
2022-10-10T04:54:47.199Z,7.40
2022-10-10T04:57:14.295Z,5.87
2022-10-10T04:59:41.439Z,5.83
2022-10-10T05:02:08.711Z,4.27
2022-10-10T05:04:35.951Z,6.70
2022-10-10T05:07:03.029Z,4.60
2022-10-10T05:09:30.247Z,4.97
2022-10-10T05:11:57.421Z,4.20
2022-10-10T05:14:24.446Z,5.77
2022-10-10T05:16:51.785Z,5.93
2022-10-10T05:19:27.033Z,9.67
2022-10-10T05:21:54.134Z,4.50
2022-10-10T05:24:21.332Z,3.83
2022-10-10T05:26:48.389Z,6.00
2022-10-10T05:29:15.426Z,4.93
2022-10-10T05:31:42.561Z,5.73
2022-10-10T05:34:15.133Z,5.97
2022-10-10T05:36:42.980Z,4.97
2022-10-10T05:39:10.184Z,7.10
2022-10-10T05:41:57.042Z,6.37
2022-10-10T05:44:24.475Z,4.83
2022-10-10T05:46:51.477Z,6.57
2022-10-10T05:49:18.629Z,6.07
2022-10-10T05:51:45.885Z,5.67
2022-10-10T05:54:13.216Z,4.87
2022-10-10T05:56:40.568Z,4.50
2022-10-10T05:59:07.683Z,7.33
2022-10-10T06:01:35.946Z,5.27
2022-10-10T06:04:03.115Z,4.87
2022-10-10T06:06:30.478Z,6.93
2022-10-10T06:08:57.666Z,6.37
2022-10-10T06:11:26.080Z,5.60
2022-10-10T06:13:54.525Z,5.23
2022-10-10T06:16:23.795Z,5.90
2022-10-10T06:18:51.421Z,5.70
2022-10-10T06:21:19.770Z,6.60
2022-10-10T06:23:46.948Z,6.27
2022-10-10T06:26:14.679Z,5.03
2022-10-10T06:28:41.953Z,6.07
2022-10-10T06:31:12.168Z,6.20
2022-10-10T06:33:41.300Z,5.37
2022-10-10T06:36:09.347Z,5.10
2022-10-10T06:38:41.503Z,4.30
2022-10-10T06:41:09.635Z,6.93
2022-10-10T06:43:37.201Z,5.20
2022-10-10T06:46:05.702Z,5.53
2022-10-10T06:48:34.998Z,6.40
2022-10-10T06:51:13.655Z,6.70
2022-10-10T06:53:41.018Z,4.50
2022-10-10T06:56:08.613Z,5.83
2022-10-10T06:58:36.148Z,6.40
2022-10-10T07:01:05.300Z,6.27
2022-10-10T07:03:32.647Z,7.73
2022-10-10T07:06:02.932Z,5.83
2022-10-10T07:08:30.882Z,6.03
2022-10-10T07:10:58.027Z,5.90
2022-10-10T07:13:25.218Z,4.83
2022-10-10T07:15:53.565Z,6.80
2022-10-10T07:18:21.267Z,4.30
2022-10-10T07:20:49.747Z,5.63
2022-10-10T07:23:20.070Z,5.47
2022-10-10T07:25:47.324Z,5.60
2022-10-10T07:28:14.912Z,6.57
2022-10-10T07:30:44.263Z,6.60
2022-10-10T07:33:14.184Z,5.17
2022-10-10T07:35:41.993Z,5.43
2022-10-10T07:38:11.714Z,5.00
2022-10-10T07:40:41.747Z,5.10
2022-10-10T07:43:08.985Z,4.33
2022-10-10T07:45:37.267Z,4.97
2022-10-10T07:48:05.234Z,5.10
2022-10-10T07:50:32.481Z,5.27
2022-10-10T07:52:59.800Z,5.40
2022-10-10T07:55:27.315Z,6.17
2022-10-10T07:57:54.812Z,6.07
2022-10-10T08:00:22.221Z,5.17
2022-10-10T08:02:50.945Z,5.60
2022-10-10T08:05:18.361Z,5.10
2022-10-10T08:07:45.440Z,8.90
2022-10-10T08:10:12.751Z,8.73
2022-10-10T08:12:39.893Z,7.87
2022-10-10T08:15:08.157Z,13.37
2022-10-10T08:17:35.303Z,7.07
2022-10-10T08:20:02.646Z,6.47
2022-10-10T08:22:29.858Z,5.07
2022-10-10T08:24:56.994Z,6.23
2022-10-10T08:27:24.290Z,5.67
2022-10-10T08:29:52.151Z,5.17
2022-10-10T08:32:19.263Z,6.47
2022-10-10T08:34:46.555Z,8.00
2022-10-10T08:37:13.872Z,9.10
2022-10-10T08:39:41.160Z,8.27
2022-10-10T08:42:18.122Z,8.40
2022-10-10T08:44:56.288Z,8.60
2022-10-10T08:48:01.312Z,6.13
2022-10-10T08:50:41.142Z,4.87
2022-10-10T08:53:28.557Z,7.87
2022-10-10T08:55:56.332Z,7.53
2022-10-10T08:58:37.649Z,5.43
2022-10-10T09:01:23.771Z,8.30
2022-10-10T09:04:01.180Z,6.67
2022-10-10T09:07:03.961Z,7.00
2022-10-10T09:09:56.164Z,10.97
2022-10-10T09:13:18.949Z,6.23
2022-10-10T09:16:28.731Z,6.83
2022-10-10T09:19:24.574Z,8.83
2022-10-10T09:22:01.234Z,7.90
2022-10-10T09:24:56.149Z,6.07
2022-10-10T09:27:31.441Z,6.87
2022-10-10T09:30:14.175Z,6.50
2022-10-10T09:32:50.799Z,5.40
2022-10-10T09:35:26.321Z,6.23
2022-10-10T09:38:34.561Z,6.10
2022-10-10T09:41:30.061Z,6.63
2022-10-10T09:43:59.998Z,8.43
2022-10-10T09:46:27.603Z,8.17
2022-10-10T09:48:55.813Z,6.63
2022-10-10T09:51:23.037Z,5.83
2022-10-10T09:53:50.910Z,5.60
2022-10-10T09:56:31.704Z,6.67
2022-10-10T09:58:58.918Z,6.03
2022-10-10T10:01:35.110Z,6.27
2022-10-10T10:04:27.615Z,6.47
2022-10-10T10:07:47.096Z,6.23
2022-10-10T10:10:24.568Z,6.60
2022-10-10T10:12:53.571Z,7.00
2022-10-10T10:15:22.663Z,5.03
2022-10-10T10:18:29.041Z,6.87
2022-10-10T10:21:08.319Z,5.60
2022-10-10T10:24:00.653Z,4.63
2022-10-10T10:26:48.087Z,6.83
2022-10-10T10:29:31.964Z,4.77
2022-10-10T10:32:19.195Z,4.53
2022-10-10T10:35:16.932Z,5.27
2022-10-10T10:38:09.287Z,5.33
2022-10-10T10:40:56.572Z,6.97
2022-10-10T10:44:04.795Z,7.20
2022-10-10T10:47:03.311Z,4.47
2022-10-10T10:49:57.853Z,5.47
2022-10-10T10:52:34.818Z,7.53
2022-10-10T10:55:22.801Z,5.83
2022-10-10T10:58:43.375Z,5.20
2022-10-10T11:01:23.134Z,6.40
2022-10-10T11:05:17.216Z,6.00
2022-10-10T11:07:19.835Z,6.13
2022-10-10T11:10:11.801Z,5.17
2022-10-10T11:12:44.961Z,3.83
2022-10-10T11:15:30.824Z,5.93
2022-10-10T11:18:19.099Z,5.63
2022-10-10T11:21:00.938Z,5.00
2022-10-10T11:23:40.706Z,7.47
2022-10-10T11:26:32.002Z,4.73
2022-10-10T11:29:25.675Z,4.90
2022-10-10T11:32:16.884Z,6.77
2022-10-10T11:35:08.772Z,6.83
2022-10-10T11:37:44.460Z,6.67
2022-10-10T11:40:46.757Z,6.47
2022-10-10T11:43:50.450Z,5.70
2022-10-10T11:47:01.279Z,6.93
2022-10-10T11:49:55.897Z,3.67
2022-10-10T11:52:42.664Z,6.17
2022-10-10T11:55:48.461Z,7.37
2022-10-10T11:58:40.567Z,8.67
2022-10-10T12:01:36.168Z,5.57
2022-10-10T12:04:03.456Z,6.90
2022-10-10T12:06:49.443Z,8.13
2022-10-10T12:09:30.401Z,7.50
2022-10-10T12:12:06.974Z,7.33
2022-10-10T12:14:39.183Z,6.07
2022-10-10T12:17:19.969Z,6.17
2022-10-10T12:19:51.075Z,6.77
2022-10-10T12:22:29.134Z,6.47
2022-10-10T12:25:27.848Z,8.40
2022-10-10T12:28:57.066Z,6.57
2022-10-10T12:31:37.428Z,3.80
2022-10-10T12:34:37.275Z,5.57
2022-10-10T12:37:35.190Z,8.80
2022-10-10T12:40:08.444Z,6.73
2022-10-10T12:43:01.269Z,6.13
2022-10-10T12:45:31.408Z,6.47
2022-10-10T12:48:05.625Z,7.93
2022-10-10T12:50:41.674Z,6.73
2022-10-10T12:53:20.645Z,4.93
2022-10-10T12:55:52.344Z,5.33
2022-10-10T12:58:38.443Z,8.53
2022-10-10T13:01:28.626Z,5.63
2022-10-10T13:03:58.087Z,4.73
2022-10-10T13:06:42.778Z,5.40
2022-10-10T13:09:15.421Z,4.23
2022-10-10T13:12:01.876Z,5.17
2022-10-10T13:14:42.293Z,3.93
2022-10-10T13:17:42.196Z,4.83
2022-10-10T13:20:38.185Z,7.27
2022-10-10T13:23:14.660Z,3.23
2022-10-10T13:25:45.639Z,6.37
2022-10-10T13:28:20.074Z,5.70
2022-10-10T13:30:49.675Z,6.50
2022-10-10T13:33:25.615Z,3.83
2022-10-10T13:35:52.638Z,5.13
2022-10-10T13:38:25.886Z,4.50
2022-10-10T13:40:53.560Z,4.20
2022-10-10T13:43:20.814Z,4.10
2022-10-10T13:46:00.614Z,5.23
2022-10-10T13:48:50.741Z,4.93
2022-10-10T13:51:17.942Z,6.30
2022-10-10T13:53:54.249Z,4.97
2022-10-10T13:56:30.207Z,4.83
2022-10-10T13:59:11.428Z,5.57
2022-10-10T14:01:47.518Z,5.07
2022-10-10T14:04:38.257Z,6.93
2022-10-10T14:07:24.636Z,5.03
2022-10-10T14:09:59.363Z,4.40
2022-10-10T14:12:42.897Z,5.20
2022-10-10T14:15:37.344Z,5.30
2022-10-10T14:18:22.685Z,3.87
2022-10-10T14:20:51.336Z,7.70
2022-10-10T14:23:18.406Z,6.03
2022-10-10T14:25:48.806Z,4.23
2022-10-10T14:28:21.018Z,3.63
2022-10-10T14:30:48.435Z,5.03
2022-10-10T14:33:18.368Z,5.17
2022-10-10T14:35:48.397Z,5.30
2022-10-10T14:38:16.702Z,6.37
2022-10-10T14:40:47.554Z,7.77
2022-10-10T14:43:14.573Z,5.40
2022-10-10T14:45:41.653Z,4.00
2022-10-10T14:48:11.383Z,5.97
2022-10-10T14:50:47.130Z,4.70
2022-10-10T14:53:14.984Z,9.60
2022-10-10T14:55:43.872Z,6.83
2022-10-10T14:58:22.064Z,5.70
2022-10-10T15:00:51.537Z,6.47
2022-10-10T15:03:18.948Z,5.63
2022-10-10T15:05:47.462Z,7.73
2022-10-10T15:08:18.514Z,5.30
2022-10-10T15:10:46.884Z,6.03
2022-10-10T15:13:15.820Z,6.17
2022-10-10T15:15:43.098Z,6.77
2022-10-10T15:18:32.074Z,5.50
2022-10-10T15:21:00.616Z,5.67
2022-10-10T15:23:27.892Z,8.33
2022-10-10T15:25:59.086Z,9.47
2022-10-10T15:28:26.319Z,8.07
2022-10-10T15:30:54.857Z,7.70
2022-10-10T15:33:22.074Z,8.77
2022-10-10T15:36:09.561Z,7.13
2022-10-10T15:38:38.885Z,7.00
2022-10-10T15:41:09.659Z,6.07
2022-10-10T15:43:54.916Z,6.33
2022-10-10T15:46:24.622Z,6.33
2022-10-10T15:48:52.411Z,6.63
2022-10-10T15:51:20.503Z,5.20
2022-10-10T15:53:47.842Z,6.60
2022-10-10T15:56:16.833Z,6.07
2022-10-10T15:58:44.421Z,7.37
2022-10-10T16:01:20.183Z,4.83
2022-10-10T16:03:48.616Z,5.40
2022-10-10T16:06:18.433Z,4.67
2022-10-10T16:08:55.708Z,5.17
2022-10-10T16:11:31.404Z,7.17
2022-10-10T16:13:58.898Z,5.00
2022-10-10T16:16:26.260Z,4.43
2022-10-10T16:19:15.075Z,7.83
2022-10-10T16:21:42.704Z,5.40
2022-10-10T16:24:11.199Z,5.67
2022-10-10T16:26:39.103Z,5.73
2022-10-10T16:29:45.009Z,7.63
2022-10-10T16:32:12.110Z,4.67
2022-10-10T16:34:39.467Z,4.73
2022-10-10T16:37:06.691Z,5.00
2022-10-10T16:39:34.304Z,3.33
2022-10-10T16:42:01.320Z,1.97
2022-10-10T16:44:28.410Z,1.60
2022-10-10T16:46:55.852Z,1.73
2022-10-10T16:49:23.779Z,1.67
2022-10-10T16:51:51.402Z,1.60
2022-10-10T16:54:18.580Z,1.70
2022-10-10T16:56:45.759Z,2.00
2022-10-10T16:59:12.966Z,3.73
2022-10-10T17:01:40.370Z,1.87
2022-10-10T17:04:07.660Z,2.43
2022-10-10T17:06:38.029Z,1.90
2022-10-10T17:09:10.083Z,2.50
2022-10-10T17:11:37.723Z,2.53
2022-10-10T17:14:05.053Z,2.80
2022-10-10T17:19:19.692Z,3.27
2022-10-10T17:21:46.794Z,2.43
2022-10-10T17:24:13.849Z,3.33
2022-10-10T17:26:41.590Z,2.77
2022-10-10T17:29:09.137Z,3.17
2022-10-10T17:31:36.361Z,6.33
2022-10-10T17:34:03.560Z,6.03
2022-10-10T17:36:30.932Z,5.13
2022-10-10T17:39:01.266Z,4.87
2022-10-10T17:41:29.579Z,4.60
2022-10-10T17:43:56.814Z,4.53
2022-10-10T17:46:36.300Z,7.23
2022-10-10T17:49:08.893Z,5.40
2022-10-10T17:51:37.446Z,4.73
2022-10-10T17:54:07.646Z,5.70
2022-10-10T17:56:36.134Z,7.27
2022-10-10T17:59:06.551Z,4.47
2022-10-10T18:01:35.704Z,5.83
2022-10-10T18:04:03.493Z,7.30
2022-10-10T18:06:33.788Z,7.40
2022-10-10T18:09:01.116Z,7.00
2022-10-10T18:11:31.492Z,7.47
2022-10-10T18:14:02.432Z,5.53
2022-10-10T18:16:34.328Z,4.77
2022-10-10T18:19:07.623Z,5.90
2022-10-10T18:21:35.162Z,5.87
2022-10-10T18:24:02.542Z,6.77
2022-10-10T18:26:30.875Z,5.70
2022-10-10T18:28:59.111Z,4.10
2022-10-10T18:31:31.209Z,6.20
2022-10-10T18:33:58.729Z,6.87
2022-10-10T18:36:29.713Z,5.57
2022-10-10T18:39:03.868Z,8.43
2022-10-10T18:41:34.654Z,7.93
2022-10-10T18:44:19.799Z,6.83
2022-10-10T18:46:50.077Z,5.80
2022-10-10T18:49:17.515Z,9.23
2022-10-10T18:51:45.493Z,9.13
2022-10-10T18:54:17.545Z,8.93
2022-10-10T18:56:46.125Z,6.23
2022-10-10T18:59:18.084Z,6.07
2022-10-10T19:01:46.714Z,5.33
2022-10-10T19:04:16.605Z,4.80
2022-10-10T19:06:44.615Z,4.87
2022-10-10T19:09:16.119Z,5.63
2022-10-10T19:11:47.778Z,6.83
2022-10-10T19:14:18.412Z,7.43
2022-10-10T19:16:47.337Z,7.93
2022-10-10T19:19:17.872Z,5.17
2022-10-10T19:21:48.170Z,7.13
2022-10-10T19:24:19.669Z,6.90
2022-10-10T19:26:52.255Z,5.47
2022-10-10T19:29:20.525Z,7.20
2022-10-10T19:31:47.782Z,5.03
2022-10-10T19:34:15.012Z,4.50
2022-10-10T19:36:42.409Z,13.40
2022-10-10T19:39:09.976Z,10.33
2022-10-10T19:41:37.189Z,8.03
2022-10-10T19:44:05.831Z,8.57
2022-10-10T19:46:37.171Z,8.33
2022-10-10T19:49:05.192Z,8.77
2022-10-10T19:51:32.534Z,6.47
2022-10-10T19:53:59.818Z,6.10
2022-10-10T19:56:27.758Z,8.87
2022-10-10T19:59:01.097Z,8.17
2022-10-10T20:01:30.909Z,6.73
2022-10-10T20:03:59.181Z,7.83
2022-10-10T20:06:27.858Z,7.47
2022-10-10T20:08:55.478Z,6.80
2022-10-10T20:11:23.684Z,10.23
2022-10-10T20:13:55.597Z,9.53
2022-10-10T20:16:25.541Z,7.07
2022-10-10T20:18:53.766Z,9.87
2022-10-10T20:21:33.845Z,11.23
2022-10-10T20:24:07.684Z,8.97
2022-10-10T20:26:36.526Z,7.90
2022-10-10T20:29:04.285Z,9.27
2022-10-10T20:31:35.212Z,10.73
2022-10-10T20:34:04.729Z,10.00
2022-10-10T20:36:35.039Z,11.33
2022-10-10T20:39:08.839Z,9.40
2022-10-10T20:41:40.057Z,10.37
2022-10-10T20:44:10.830Z,8.67
2022-10-10T20:46:40.940Z,9.10
2022-10-10T20:49:14.911Z,10.83
2022-10-10T20:51:48.140Z,9.30
2022-10-10T20:54:21.090Z,10.00
2022-10-10T20:56:49.907Z,8.20
2022-10-10T20:59:19.065Z,7.90
2022-10-10T21:01:46.350Z,8.10
2022-10-10T21:04:14.302Z,10.07
2022-10-10T21:06:44.976Z,8.90
2022-10-10T21:09:15.725Z,8.27
2022-10-10T21:11:44.115Z,9.40
2022-10-10T21:14:13.914Z,8.70
2022-10-10T21:16:41.578Z,5.73
2022-10-10T21:19:12.396Z,5.60
2022-10-10T21:21:39.851Z,7.30
2022-10-10T21:24:14.009Z,8.97
2022-10-10T21:26:42.814Z,9.60
2022-10-10T21:29:10.276Z,8.87
2022-10-10T21:31:40.292Z,6.67
2022-10-10T21:34:13.494Z,11.53
2022-10-10T21:36:41.096Z,7.40
2022-10-10T21:39:08.620Z,7.97
2022-10-10T21:41:37.242Z,9.10
2022-10-10T21:44:04.876Z,7.77
2022-10-10T21:46:37.257Z,9.97
2022-10-10T21:49:11.840Z,8.40
2022-10-10T21:51:42.849Z,8.03
2022-10-10T21:54:10.733Z,8.10
2022-10-10T21:56:38.711Z,8.40
2022-10-10T21:59:06.645Z,5.50
2022-10-10T22:01:37.758Z,8.47
2022-10-10T22:04:06.566Z,7.03
2022-10-10T22:06:33.832Z,8.13
2022-10-10T22:09:03.404Z,6.60
2022-10-10T22:11:34.504Z,5.53
2022-10-10T22:14:02.845Z,6.73
2022-10-10T22:16:32.036Z,7.10
2022-10-10T22:18:59.724Z,8.20
2022-10-10T22:21:32.089Z,5.93
2022-10-10T22:24:03.027Z,6.80
2022-10-10T22:26:31.462Z,12.87
2022-10-10T22:28:59.104Z,8.63
2022-10-10T22:31:26.835Z,8.10
2022-10-10T22:33:54.015Z,7.23
2022-10-10T22:36:21.125Z,9.23
2022-10-10T22:38:48.185Z,7.57
2022-10-10T22:41:15.344Z,9.90
2022-10-10T22:43:44.686Z,7.27
2022-10-10T22:46:11.794Z,7.17
2022-10-10T22:48:39.534Z,7.33
2022-10-10T22:51:15.439Z,8.20
2022-10-10T22:53:44.837Z,11.43
2022-10-10T22:56:15.642Z,8.40
2022-10-10T22:58:44.041Z,8.37
2022-10-10T23:01:18.836Z,9.53
2022-10-10T23:03:46.535Z,7.23
2022-10-10T23:06:13.948Z,8.10
2022-10-10T23:08:41.135Z,7.87
2022-10-10T23:11:08.495Z,8.87
2022-10-10T23:13:35.687Z,7.20
2022-10-10T23:16:03.199Z,10.00
2022-10-10T23:18:30.955Z,8.07
2022-10-10T23:20:58.269Z,7.10
2022-10-10T23:23:25.779Z,6.73
2022-10-10T23:25:52.942Z,7.77
2022-10-10T23:28:20.107Z,7.63
2022-10-10T23:30:49.036Z,7.43
2022-10-10T23:33:17.546Z,6.10
2022-10-10T23:35:45.145Z,9.10
2022-10-10T23:38:12.361Z,6.57
2022-10-10T23:40:39.477Z,7.43
2022-10-10T23:43:07.568Z,6.47
2022-10-10T23:45:34.889Z,8.57
2022-10-10T23:48:02.032Z,7.33
2022-10-10T23:50:30.183Z,7.63
2022-10-10T23:52:57.246Z,6.63
2022-10-10T23:55:24.577Z,5.93
2022-10-10T23:57:51.740Z,8.23
